sensor_id;sensor_type;location;lat;lon;timestamp;temperature;humidity
26035;DHT22;13809;48.632;11.576;2022-07-03T00:02:42;21.10;29.50
26035;DHT22;13809;48.632;11.576;2022-07-03T00:07:46;21.00;30.00
26035;DHT22;13809;48.632;11.576;2022-07-03T00:12:49;20.90;29.90
26035;DHT22;13809;48.632;11.576;2022-07-03T00:17:53;20.70;30.00
26035;DHT22;13809;48.632;11.576;2022-07-03T00:23:00;20.50;30.40
26035;DHT22;13809;48.632;11.576;2022-07-03T00:28:06;20.40;31.10
26035;DHT22;13809;48.632;11.576;2022-07-03T00:33:11;20.40;30.60
26035;DHT22;13809;48.632;11.576;2022-07-03T00:38:16;20.40;31.10
26035;DHT22;13809;48.632;11.576;2022-07-03T00:43:20;20.30;30.90
26035;DHT22;13809;48.632;11.576;2022-07-03T00:48:25;20.10;30.50
26035;DHT22;13809;48.632;11.576;2022-07-03T00:53:29;20.00;31.30
26035;DHT22;13809;48.632;11.576;2022-07-03T00:58:34;19.90;31.10
26035;DHT22;13809;48.632;11.576;2022-07-03T01:03:40;19.90;31.10
26035;DHT22;13809;48.632;11.576;2022-07-03T01:08:49;19.90;31.60
26035;DHT22;13809;48.632;11.576;2022-07-03T01:14:04;19.80;31.80
26035;DHT22;13809;48.632;11.576;2022-07-03T01:19:21;19.70;32.10
26035;DHT22;13809;48.632;11.576;2022-07-03T01:24:42;19.70;32.70
26035;DHT22;13809;48.632;11.576;2022-07-03T01:29:52;19.70;32.60
26035;DHT22;13809;48.632;11.576;2022-07-03T01:35:01;19.50;32.60
26035;DHT22;13809;48.632;11.576;2022-07-03T01:40:06;19.50;32.40
26035;DHT22;13809;48.632;11.576;2022-07-03T01:45:14;19.40;31.90
26035;DHT22;13809;48.632;11.576;2022-07-03T01:50:21;19.30;33.00
26035;DHT22;13809;48.632;11.576;2022-07-03T01:55:25;19.30;32.90
26035;DHT22;13809;48.632;11.576;2022-07-03T02:00:30;19.30;32.50
26035;DHT22;13809;48.632;11.576;2022-07-03T02:05:41;19.20;32.80
26035;DHT22;13809;48.632;11.576;2022-07-03T02:10:50;19.20;33.30
26035;DHT22;13809;48.632;11.576;2022-07-03T02:15:58;19.10;32.90
26035;DHT22;13809;48.632;11.576;2022-07-03T02:21:10;19.00;33.10
26035;DHT22;13809;48.632;11.576;2022-07-03T02:26:16;18.90;33.60
26035;DHT22;13809;48.632;11.576;2022-07-03T02:31:24;18.80;33.30
26035;DHT22;13809;48.632;11.576;2022-07-03T02:36:28;18.70;34.00
26035;DHT22;13809;48.632;11.576;2022-07-03T02:41:45;18.70;33.20
26035;DHT22;13809;48.632;11.576;2022-07-03T02:46:59;18.70;34.40
26035;DHT22;13809;48.632;11.576;2022-07-03T02:52:12;18.70;34.40
26035;DHT22;13809;48.632;11.576;2022-07-03T02:57:17;18.70;34.30
26035;DHT22;13809;48.632;11.576;2022-07-03T03:02:49;18.70;34.00
26035;DHT22;13809;48.632;11.576;2022-07-03T03:08:11;18.70;34.10
26035;DHT22;13809;48.632;11.576;2022-07-03T03:13:16;18.60;34.00
26035;DHT22;13809;48.632;11.576;2022-07-03T03:18:22;18.60;33.50
26035;DHT22;13809;48.632;11.576;2022-07-03T03:23:44;18.50;33.70
26035;DHT22;13809;48.632;11.576;2022-07-03T03:28:51;18.40;34.60
26035;DHT22;13809;48.632;11.576;2022-07-03T03:33:58;18.30;33.80
26035;DHT22;13809;48.632;11.576;2022-07-03T03:39:02;18.20;34.40
26035;DHT22;13809;48.632;11.576;2022-07-03T03:44:05;18.20;33.80
26035;DHT22;13809;48.632;11.576;2022-07-03T03:49:10;18.20;33.90
26035;DHT22;13809;48.632;11.576;2022-07-03T03:54:13;18.20;34.70
26035;DHT22;13809;48.632;11.576;2022-07-03T03:59:16;18.20;34.20
26035;DHT22;13809;48.632;11.576;2022-07-03T04:04:21;18.20;34.20
26035;DHT22;13809;48.632;11.576;2022-07-03T04:09:24;18.10;34.80
26035;DHT22;13809;48.632;11.576;2022-07-03T04:14:27;18.10;34.70
26035;DHT22;13809;48.632;11.576;2022-07-03T04:19:32;18.10;34.80
26035;DHT22;13809;48.632;11.576;2022-07-03T04:24:35;18.00;34.80
26035;DHT22;13809;48.632;11.576;2022-07-03T04:29:38;17.90;34.70
26035;DHT22;13809;48.632;11.576;2022-07-03T04:34:43;17.90;34.70
26035;DHT22;13809;48.632;11.576;2022-07-03T04:39:47;17.80;35.60
26035;DHT22;13809;48.632;11.576;2022-07-03T04:44:50;17.70;35.40
26035;DHT22;13809;48.632;11.576;2022-07-03T04:49:54;17.70;35.60
26035;DHT22;13809;48.632;11.576;2022-07-03T04:54:57;17.80;36.60
26035;DHT22;13809;48.632;11.576;2022-07-03T05:00:01;17.80;36.20
26035;DHT22;13809;48.632;11.576;2022-07-03T05:05:07;17.90;36.50
26035;DHT22;13809;48.632;11.576;2022-07-03T05:10:10;17.90;37.30
26035;DHT22;13809;48.632;11.576;2022-07-03T05:15:13;18.10;37.10
26035;DHT22;13809;48.632;11.576;2022-07-03T05:20:18;18.30;37.20
26035;DHT22;13809;48.632;11.576;2022-07-03T05:25:31;18.40;37.90
26035;DHT22;13809;48.632;11.576;2022-07-03T05:30:34;18.60;37.60
26035;DHT22;13809;48.632;11.576;2022-07-03T05:35:39;18.80;37.60
26035;DHT22;13809;48.632;11.576;2022-07-03T05:40:42;19.00;38.10
26035;DHT22;13809;48.632;11.576;2022-07-03T05:45:45;19.20;37.70
26035;DHT22;13809;48.632;11.576;2022-07-03T05:50:50;19.40;37.90
26035;DHT22;13809;48.632;11.576;2022-07-03T05:55:55;19.50;38.30
26035;DHT22;13809;48.632;11.576;2022-07-03T06:00:59;19.70;37.90
26035;DHT22;13809;48.632;11.576;2022-07-03T06:06:03;19.90;37.80
26035;DHT22;13809;48.632;11.576;2022-07-03T06:11:07;20.10;38.40
26035;DHT22;13809;48.632;11.576;2022-07-03T06:16:10;20.40;38.90
26035;DHT22;13809;48.632;11.576;2022-07-03T06:21:16;20.50;38.10
26035;DHT22;13809;48.632;11.576;2022-07-03T06:26:19;20.70;38.60
26035;DHT22;13809;48.632;11.576;2022-07-03T06:31:22;20.90;38.20
26035;DHT22;13809;48.632;11.576;2022-07-03T06:36:27;21.20;37.90
26035;DHT22;13809;48.632;11.576;2022-07-03T06:41:30;21.40;38.30
26035;DHT22;13809;48.632;11.576;2022-07-03T06:46:33;21.60;37.90
26035;DHT22;13809;48.632;11.576;2022-07-03T06:51:38;21.90;38.20
26035;DHT22;13809;48.632;11.576;2022-07-03T06:56:41;22.10;38.40
26035;DHT22;13809;48.632;11.576;2022-07-03T07:01:44;22.30;38.50
26035;DHT22;13809;48.632;11.576;2022-07-03T07:06:49;22.60;38.80
26035;DHT22;13809;48.632;11.576;2022-07-03T07:11:52;22.90;39.10
26035;DHT22;13809;48.632;11.576;2022-07-03T07:16:56;23.20;39.10
26035;DHT22;13809;48.632;11.576;2022-07-03T07:22:00;23.50;38.40
26035;DHT22;13809;48.632;11.576;2022-07-03T07:27:04;23.80;38.40
26035;DHT22;13809;48.632;11.576;2022-07-03T07:32:07;24.00;38.10
26035;DHT22;13809;48.632;11.576;2022-07-03T07:37:12;24.30;38.20
26035;DHT22;13809;48.632;11.576;2022-07-03T07:42:15;24.50;37.50
26035;DHT22;13809;48.632;11.576;2022-07-03T07:47:19;24.70;37.40
26035;DHT22;13809;48.632;11.576;2022-07-03T07:52:23;24.90;37.00
26035;DHT22;13809;48.632;11.576;2022-07-03T07:57:33;25.10;37.30
26035;DHT22;13809;48.632;11.576;2022-07-03T08:02:37;25.40;35.90
26035;DHT22;13809;48.632;11.576;2022-07-03T08:07:59;25.60;36.10
26035;DHT22;13809;48.632;11.576;2022-07-03T08:13:02;25.80;35.60
26035;DHT22;13809;48.632;11.576;2022-07-03T08:18:06;26.00;35.30
26035;DHT22;13809;48.632;11.576;2022-07-03T08:23:11;26.20;34.30
26035;DHT22;13809;48.632;11.576;2022-07-03T08:28:14;26.40;34.20
26035;DHT22;13809;48.632;11.576;2022-07-03T08:33:17;26.50;33.60
26035;DHT22;13809;48.632;11.576;2022-07-03T08:38:26;26.70;33.70
26035;DHT22;13809;48.632;11.576;2022-07-03T08:43:33;26.90;33.00
26035;DHT22;13809;48.632;11.576;2022-07-03T08:48:37;27.10;33.90
26035;DHT22;13809;48.632;11.576;2022-07-03T08:53:44;27.40;33.60
26035;DHT22;13809;48.632;11.576;2022-07-03T08:58:49;27.60;32.30
26035;DHT22;13809;48.632;11.576;2022-07-03T09:03:52;27.90;32.60
26035;DHT22;13809;48.632;11.576;2022-07-03T09:09:00;28.20;31.90
26035;DHT22;13809;48.632;11.576;2022-07-03T09:14:03;28.40;31.10
26035;DHT22;13809;48.632;11.576;2022-07-03T09:19:08;28.60;31.50
26035;DHT22;13809;48.632;11.576;2022-07-03T09:24:13;28.80;31.40
26035;DHT22;13809;48.632;11.576;2022-07-03T09:29:19;29.10;30.50
26035;DHT22;13809;48.632;11.576;2022-07-03T09:34:22;29.30;30.30
26035;DHT22;13809;48.632;11.576;2022-07-03T09:39:30;29.40;30.30
26035;DHT22;13809;48.632;11.576;2022-07-03T09:44:37;29.50;29.80
26035;DHT22;13809;48.632;11.576;2022-07-03T09:49:49;29.60;29.50
26035;DHT22;13809;48.632;11.576;2022-07-03T09:54:56;29.80;28.30
26035;DHT22;13809;48.632;11.576;2022-07-03T10:00:12;30.00;28.30
26035;DHT22;13809;48.632;11.576;2022-07-03T10:05:15;30.10;26.40
26035;DHT22;13809;48.632;11.576;2022-07-03T10:10:22;30.10;28.10
26035;DHT22;13809;48.632;11.576;2022-07-03T10:15:27;30.20;27.40
26035;DHT22;13809;48.632;11.576;2022-07-03T10:20:33;30.30;27.80
26035;DHT22;13809;48.632;11.576;2022-07-03T10:25:41;30.50;27.10
26035;DHT22;13809;48.632;11.576;2022-07-03T10:30:45;30.60;26.60
26035;DHT22;13809;48.632;11.576;2022-07-03T10:35:51;30.80;27.00
26035;DHT22;13809;48.632;11.576;2022-07-03T10:41:00;30.90;25.50
26035;DHT22;13809;48.632;11.576;2022-07-03T10:46:23;31.10;25.30
26035;DHT22;13809;48.632;11.576;2022-07-03T10:51:28;31.20;25.60
26035;DHT22;13809;48.632;11.576;2022-07-03T10:57:06;31.30;25.70
26035;DHT22;13809;48.632;11.576;2022-07-03T11:02:17;31.30;25.60
26035;DHT22;13809;48.632;11.576;2022-07-03T11:07:20;31.40;24.90
26035;DHT22;13809;48.632;11.576;2022-07-03T11:12:55;31.40;25.20
26035;DHT22;13809;48.632;11.576;2022-07-03T11:18:24;31.50;24.80
26035;DHT22;13809;48.632;11.576;2022-07-03T11:23:35;31.60;24.50
26035;DHT22;13809;48.632;11.576;2022-07-03T11:28:51;31.70;24.00
26035;DHT22;13809;48.632;11.576;2022-07-03T11:33:58;31.80;23.80
26035;DHT22;13809;48.632;11.576;2022-07-03T11:39:08;31.90;22.70
26035;DHT22;13809;48.632;11.576;2022-07-03T11:44:19;32.00;23.10
26035;DHT22;13809;48.632;11.576;2022-07-03T11:49:22;32.10;22.40
26035;DHT22;13809;48.632;11.576;2022-07-03T11:54:31;32.20;23.40
26035;DHT22;13809;48.632;11.576;2022-07-03T11:59:36;32.30;22.70
26035;DHT22;13809;48.632;11.576;2022-07-03T12:04:39;32.30;22.30
26035;DHT22;13809;48.632;11.576;2022-07-03T12:09:43;32.50;22.40
26035;DHT22;13809;48.632;11.576;2022-07-03T12:14:50;32.50;22.40
26035;DHT22;13809;48.632;11.576;2022-07-03T12:19:56;32.50;21.50
26035;DHT22;13809;48.632;11.576;2022-07-03T12:25:02;32.50;21.40
26035;DHT22;13809;48.632;11.576;2022-07-03T12:30:09;32.50;21.30
26035;DHT22;13809;48.632;11.576;2022-07-03T12:35:12;32.50;20.40
26035;DHT22;13809;48.632;11.576;2022-07-03T12:40:15;32.50;21.20
26035;DHT22;13809;48.632;11.576;2022-07-03T12:45:22;32.50;21.20
26035;DHT22;13809;48.632;11.576;2022-07-03T12:50:26;32.50;20.60
26035;DHT22;13809;48.632;11.576;2022-07-03T12:55:35;32.70;21.00
26035;DHT22;13809;48.632;11.576;2022-07-03T13:00:43;32.70;20.30
26035;DHT22;13809;48.632;11.576;2022-07-03T13:05:49;32.70;19.30
26035;DHT22;13809;48.632;11.576;2022-07-03T13:10:55;32.80;19.80
26035;DHT22;13809;48.632;11.576;2022-07-03T13:16:00;32.90;19.30
26035;DHT22;13809;48.632;11.576;2022-07-03T13:21:03;32.90;19.30
26035;DHT22;13809;48.632;11.576;2022-07-03T13:26:06;33.00;19.50
26035;DHT22;13809;48.632;11.576;2022-07-03T13:31:11;33.00;19.40
26035;DHT22;13809;48.632;11.576;2022-07-03T13:36:14;33.10;18.30
26035;DHT22;13809;48.632;11.576;2022-07-03T13:41:19;33.10;18.60
26035;DHT22;13809;48.632;11.576;2022-07-03T13:46:26;33.20;19.10
26035;DHT22;13809;48.632;11.576;2022-07-03T13:51:29;33.20;17.60
26035;DHT22;13809;48.632;11.576;2022-07-03T13:56:32;33.30;18.60
26035;DHT22;13809;48.632;11.576;2022-07-03T14:01:37;33.40;18.70
26035;DHT22;13809;48.632;11.576;2022-07-03T14:06:40;33.40;17.60
26035;DHT22;13809;48.632;11.576;2022-07-03T14:11:43;33.40;18.00
26035;DHT22;13809;48.632;11.576;2022-07-03T14:16:48;33.40;17.70
26035;DHT22;13809;48.632;11.576;2022-07-03T14:21:52;33.30;17.50
26035;DHT22;13809;48.632;11.576;2022-07-03T14:26:55;33.30;18.00
26035;DHT22;13809;48.632;11.576;2022-07-03T14:32:17;33.40;17.90
26035;DHT22;13809;48.632;11.576;2022-07-03T14:37:33;33.30;17.50
26035;DHT22;13809;48.632;11.576;2022-07-03T14:42:36;33.40;17.70
26035;DHT22;13809;48.632;11.576;2022-07-03T14:47:41;33.50;17.70
26035;DHT22;13809;48.632;11.576;2022-07-03T14:52:44;33.60;17.80
26035;DHT22;13809;48.632;11.576;2022-07-03T14:57:52;33.60;17.80
26035;DHT22;13809;48.632;11.576;2022-07-03T15:03:03;33.70;16.20
26035;DHT22;13809;48.632;11.576;2022-07-03T15:08:28;33.70;16.40
26035;DHT22;13809;48.632;11.576;2022-07-03T15:13:33;33.70;16.70
26035;DHT22;13809;48.632;11.576;2022-07-03T15:18:38;33.70;17.00
26035;DHT22;13809;48.632;11.576;2022-07-03T15:23:41;33.80;16.70
26035;DHT22;13809;48.632;11.576;2022-07-03T15:28:45;33.80;16.90
26035;DHT22;13809;48.632;11.576;2022-07-03T15:33:51;33.70;16.90
26035;DHT22;13809;48.632;11.576;2022-07-03T15:39:02;33.70;16.50
26035;DHT22;13809;48.632;11.576;2022-07-03T15:44:14;33.80;16.20
26035;DHT22;13809;48.632;11.576;2022-07-03T15:49:28;33.90;16.00
26035;DHT22;13809;48.632;11.576;2022-07-03T15:54:40;33.90;16.40
26035;DHT22;13809;48.632;11.576;2022-07-03T15:59:47;33.90;15.60
26035;DHT22;13809;48.632;11.576;2022-07-03T16:05:03;33.90;15.60
26035;DHT22;13809;48.632;11.576;2022-07-03T16:10:08;33.80;15.60
26035;DHT22;13809;48.632;11.576;2022-07-03T16:15:12;33.90;15.60
26035;DHT22;13809;48.632;11.576;2022-07-03T16:20:17;33.80;16.00
26035;DHT22;13809;48.632;11.576;2022-07-03T16:25:23;33.80;15.30
26035;DHT22;13809;48.632;11.576;2022-07-03T16:30:27;33.80;15.80
26035;DHT22;13809;48.632;11.576;2022-07-03T16:35:37;33.80;15.80
26035;DHT22;13809;48.632;11.576;2022-07-03T16:40:42;33.90;15.40
26035;DHT22;13809;48.632;11.576;2022-07-03T16:45:49;33.90;15.60
26035;DHT22;13809;48.632;11.576;2022-07-03T16:50:56;33.80;15.00
26035;DHT22;13809;48.632;11.576;2022-07-03T16:56:02;33.80;14.60
26035;DHT22;13809;48.632;11.576;2022-07-03T17:01:09;33.80;15.20
26035;DHT22;13809;48.632;11.576;2022-07-03T17:06:14;33.80;15.10
26035;DHT22;13809;48.632;11.576;2022-07-03T17:11:20;33.70;14.80
26035;DHT22;13809;48.632;11.576;2022-07-03T17:16:27;33.70;15.00
26035;DHT22;13809;48.632;11.576;2022-07-03T17:21:40;33.70;14.50
26035;DHT22;13809;48.632;11.576;2022-07-03T17:26:47;33.70;14.50
26035;DHT22;13809;48.632;11.576;2022-07-03T17:31:53;33.60;14.60
26035;DHT22;13809;48.632;11.576;2022-07-03T17:36:59;33.70;14.50
26035;DHT22;13809;48.632;11.576;2022-07-03T17:42:06;33.70;14.70
26035;DHT22;13809;48.632;11.576;2022-07-03T17:47:15;33.70;14.80
26035;DHT22;13809;48.632;11.576;2022-07-03T17:52:24;33.70;15.00
26035;DHT22;13809;48.632;11.576;2022-07-03T17:57:28;33.70;14.50
26035;DHT22;13809;48.632;11.576;2022-07-03T18:02:41;33.80;15.10
26035;DHT22;13809;48.632;11.576;2022-07-03T18:07:57;33.80;14.60
26035;DHT22;13809;48.632;11.576;2022-07-03T18:13:08;33.70;14.60
26035;DHT22;13809;48.632;11.576;2022-07-03T18:18:15;33.60;14.60
26035;DHT22;13809;48.632;11.576;2022-07-03T18:23:25;33.60;14.80
26035;DHT22;13809;48.632;11.576;2022-07-03T18:28:33;33.40;15.50
26035;DHT22;13809;48.632;11.576;2022-07-03T18:33:38;33.30;16.60
26035;DHT22;13809;48.632;11.576;2022-07-03T18:38:43;33.10;16.80
26035;DHT22;13809;48.632;11.576;2022-07-03T18:43:47;33.10;17.50
26035;DHT22;13809;48.632;11.576;2022-07-03T18:48:50;32.90;17.50
26035;DHT22;13809;48.632;11.576;2022-07-03T18:54:00;32.70;17.80
26035;DHT22;13809;48.632;11.576;2022-07-03T18:59:15;32.60;18.00
26035;DHT22;13809;48.632;11.576;2022-07-03T19:04:33;32.40;17.70
26035;DHT22;13809;48.632;11.576;2022-07-03T19:09:42;32.20;17.70
26035;DHT22;13809;48.632;11.576;2022-07-03T19:14:49;32.00;18.10
26035;DHT22;13809;48.632;11.576;2022-07-03T19:19:59;31.80;18.10
26035;DHT22;13809;48.632;11.576;2022-07-03T19:25:10;31.70;18.30
26035;DHT22;13809;48.632;11.576;2022-07-03T19:30:15;31.50;18.90
26035;DHT22;13809;48.632;11.576;2022-07-03T19:35:19;31.30;19.20
26035;DHT22;13809;48.632;11.576;2022-07-03T19:40:24;31.20;19.10
26035;DHT22;13809;48.632;11.576;2022-07-03T19:45:27;31.00;19.60
26035;DHT22;13809;48.632;11.576;2022-07-03T19:50:30;30.80;19.50
26035;DHT22;13809;48.632;11.576;2022-07-03T19:55:35;30.50;19.50
26035;DHT22;13809;48.632;11.576;2022-07-03T20:00:38;30.30;20.00
26035;DHT22;13809;48.632;11.576;2022-07-03T20:05:41;29.90;20.10
26035;DHT22;13809;48.632;11.576;2022-07-03T20:10:46;29.70;20.70
26035;DHT22;13809;48.632;11.576;2022-07-03T20:15:49;29.50;20.90
26035;DHT22;13809;48.632;11.576;2022-07-03T20:20:53;29.20;20.80
26035;DHT22;13809;48.632;11.576;2022-07-03T20:25:58;29.00;20.90
26035;DHT22;13809;48.632;11.576;2022-07-03T20:31:02;28.80;21.60
26035;DHT22;13809;48.632;11.576;2022-07-03T20:36:05;28.60;21.40
26035;DHT22;13809;48.632;11.576;2022-07-03T20:41:10;28.40;21.70
26035;DHT22;13809;48.632;11.576;2022-07-03T20:46:13;28.00;22.30
26035;DHT22;13809;48.632;11.576;2022-07-03T20:51:16;27.80;22.40
26035;DHT22;13809;48.632;11.576;2022-07-03T20:56:21;27.50;22.80
26035;DHT22;13809;48.632;11.576;2022-07-03T21:01:27;27.20;23.50
26035;DHT22;13809;48.632;11.576;2022-07-03T21:06:31;26.90;23.30
26035;DHT22;13809;48.632;11.576;2022-07-03T21:11:38;26.70;23.80
26035;DHT22;13809;48.632;11.576;2022-07-03T21:16:44;26.60;24.30
26035;DHT22;13809;48.632;11.576;2022-07-03T21:21:48;26.50;24.50
26035;DHT22;13809;48.632;11.576;2022-07-03T21:26:53;26.30;24.50
26035;DHT22;13809;48.632;11.576;2022-07-03T21:31:57;26.20;25.00
26035;DHT22;13809;48.632;11.576;2022-07-03T21:37:00;26.00;24.90
26035;DHT22;13809;48.632;11.576;2022-07-03T21:42:06;25.70;25.10
26035;DHT22;13809;48.632;11.576;2022-07-03T21:47:09;25.40;26.20
26035;DHT22;13809;48.632;11.576;2022-07-03T21:52:12;25.40;26.20
26035;DHT22;13809;48.632;11.576;2022-07-03T21:57:17;25.40;26.30
26035;DHT22;13809;48.632;11.576;2022-07-03T22:02:22;25.40;26.80
26035;DHT22;13809;48.632;11.576;2022-07-03T22:07:25;25.40;26.20
26035;DHT22;13809;48.632;11.576;2022-07-03T22:12:30;25.30;26.50
26035;DHT22;13809;48.632;11.576;2022-07-03T22:17:40;25.20;26.90
26035;DHT22;13809;48.632;11.576;2022-07-03T22:22:43;25.10;27.60
26035;DHT22;13809;48.632;11.576;2022-07-03T22:27:48;25.10;27.10
26035;DHT22;13809;48.632;11.576;2022-07-03T22:32:52;25.10;27.80
26035;DHT22;13809;48.632;11.576;2022-07-03T22:37:55;25.10;27.20
26035;DHT22;13809;48.632;11.576;2022-07-03T22:43:00;25.10;27.20
26035;DHT22;13809;48.632;11.576;2022-07-03T22:48:03;25.00;27.80
26035;DHT22;13809;48.632;11.576;2022-07-03T22:53:06;24.90;27.50
26035;DHT22;13809;48.632;11.576;2022-07-03T22:58:12;24.80;27.50
26035;DHT22;13809;48.632;11.576;2022-07-03T23:03:15;24.70;28.50
26035;DHT22;13809;48.632;11.576;2022-07-03T23:08:18;24.50;27.80
26035;DHT22;13809;48.632;11.576;2022-07-03T23:13:23;24.20;28.10
26035;DHT22;13809;48.632;11.576;2022-07-03T23:18:26;24.10;28.40
26035;DHT22;13809;48.632;11.576;2022-07-03T23:23:29;24.00;28.00
26035;DHT22;13809;48.632;11.576;2022-07-03T23:28:34;24.00;28.10
26035;DHT22;13809;48.632;11.576;2022-07-03T23:33:37;24.00;28.60
26035;DHT22;13809;48.632;11.576;2022-07-03T23:38:40;23.90;28.20
26035;DHT22;13809;48.632;11.576;2022-07-03T23:43:45;23.80;28.50
26035;DHT22;13809;48.632;11.576;2022-07-03T23:48:48;23.70;29.30
26035;DHT22;13809;48.632;11.576;2022-07-03T23:54:09;23.60;29.00
26035;DHT22;13809;48.632;11.576;2022-07-03T23:59:14;23.40;29.00
